createdAt,value
2019-05-06T00:00:08.984Z,1013.24
2019-05-06T00:01:09.007Z,1013.25
2019-05-06T00:02:09.038Z,1013.14
2019-05-06T00:03:09.054Z,1013.19
2019-05-06T00:04:09.079Z,1013.18
2019-05-06T00:05:09.103Z,1013.15
2019-05-06T00:06:09.127Z,1013.15
2019-05-06T00:07:09.149Z,1013.20
2019-05-06T00:08:09.173Z,1013.12
2019-05-06T00:09:09.200Z,1013.16
2019-05-06T00:10:09.221Z,1013.17
2019-05-06T00:11:09.242Z,1013.22
2019-05-06T00:12:09.272Z,1013.15
2019-05-06T00:13:09.291Z,1013.15
2019-05-06T00:14:09.313Z,1013.14
2019-05-06T00:15:09.338Z,1013.16
2019-05-06T00:16:09.364Z,1013.14
2019-05-06T00:17:09.383Z,1013.17
2019-05-06T00:18:09.410Z,1013.15
2019-05-06T00:19:09.439Z,1013.13
2019-05-06T00:20:09.453Z,1013.11
2019-05-06T00:21:09.483Z,1013.11
2019-05-06T00:22:09.501Z,1013.11
2019-05-06T00:23:09.525Z,1013.11
2019-05-06T00:24:09.548Z,1013.11
2019-05-06T00:25:09.573Z,1013.07
2019-05-06T00:26:09.597Z,1013.11
2019-05-06T00:27:09.620Z,1013.10
2019-05-06T00:28:09.644Z,1013.10
2019-05-06T00:29:09.667Z,1013.08
2019-05-06T00:30:09.696Z,1013.12
2019-05-06T00:31:13.409Z,1013.11
2019-05-06T00:32:09.742Z,1013.11
2019-05-06T00:33:09.767Z,1013.10
2019-05-06T00:34:09.781Z,1013.06
2019-05-06T00:35:09.807Z,1013.05
2019-05-06T00:36:09.829Z,1013.09
2019-05-06T00:37:09.869Z,1013.05
2019-05-06T00:38:09.884Z,1013.09
2019-05-06T00:39:09.901Z,1013.10
2019-05-06T00:40:09.927Z,1013.07
2019-05-06T00:41:09.945Z,1013.09
2019-05-06T00:42:09.968Z,1013.06
2019-05-06T00:43:09.994Z,1013.06
2019-05-06T00:44:10.017Z,1013.05
2019-05-06T00:45:10.037Z,1013.07
2019-05-06T00:46:10.069Z,1013.07
2019-05-06T00:47:10.086Z,1013.09
2019-05-06T00:48:10.107Z,1013.04
2019-05-06T00:49:10.132Z,1013.08
2019-05-06T00:50:10.153Z,1013.08
2019-05-06T00:51:10.182Z,1013.07
2019-05-06T00:52:10.199Z,1013.10
2019-05-06T00:53:10.223Z,1013.13
2019-05-06T00:54:10.255Z,1013.17
2019-05-06T00:55:10.270Z,1013.08
2019-05-06T00:56:10.301Z,1013.08
2019-05-06T00:57:10.317Z,1013.06
2019-05-06T00:58:10.341Z,1013.07
2019-05-06T00:59:10.361Z,1013.12
2019-05-06T01:00:10.392Z,1013.05
2019-05-06T01:01:23.177Z,1013.07
2019-05-06T01:02:10.432Z,1013.13
2019-05-06T01:03:10.457Z,1013.11
2019-05-06T01:04:10.478Z,1013.12
2019-05-06T01:05:10.503Z,1013.11
2019-05-06T01:06:10.524Z,1013.14
2019-05-06T01:07:10.545Z,1013.11
2019-05-06T01:08:10.572Z,1013.07
2019-05-06T01:09:10.592Z,1013.03
2019-05-06T01:10:10.622Z,1013.03
2019-05-06T01:11:10.643Z,1013.04
2019-05-06T01:12:10.662Z,1012.98
2019-05-06T01:13:10.690Z,1013.02
2019-05-06T01:14:10.710Z,1013.06
2019-05-06T01:15:10.732Z,1013.02
2019-05-06T01:16:10.754Z,1013.01
2019-05-06T01:17:10.778Z,1013.06
2019-05-06T01:18:10.801Z,1013.09
2019-05-06T01:19:10.824Z,1013.06
2019-05-06T01:20:10.847Z,1013.06
2019-05-06T01:21:10.874Z,1013.09
2019-05-06T01:22:10.891Z,1013.06
2019-05-06T01:23:10.920Z,1013.05
2019-05-06T01:24:10.940Z,1013.11
2019-05-06T01:25:10.961Z,1013.10
2019-05-06T01:26:10.983Z,1013.12
2019-05-06T01:27:11.011Z,1013.10
2019-05-06T01:28:11.031Z,1013.10
2019-05-06T01:29:11.058Z,1013.06
2019-05-06T01:30:11.074Z,1013.13
2019-05-06T01:31:11.098Z,1013.11
2019-05-06T01:32:11.123Z,1013.06
2019-05-06T01:33:11.145Z,1013.11
2019-05-06T01:34:11.166Z,1013.13
2019-05-06T01:35:11.189Z,1013.09
2019-05-06T01:36:11.214Z,1013.05
2019-05-06T01:37:11.234Z,1013.05
2019-05-06T01:38:11.260Z,1013.07
2019-05-06T01:39:11.283Z,1013.07
2019-05-06T01:40:11.304Z,1013.07
2019-05-06T01:41:13.489Z,1013.07
2019-05-06T01:42:11.354Z,1013.03
2019-05-06T01:43:11.375Z,1013.05
2019-05-06T01:44:13.608Z,1013.08
2019-05-06T01:45:11.417Z,1013.09
2019-05-06T01:46:11.439Z,1013.11
2019-05-06T01:47:11.471Z,1013.09
2019-05-06T01:48:11.492Z,1013.10
2019-05-06T01:49:13.624Z,1013.07
2019-05-06T01:50:11.533Z,1013.12
2019-05-06T01:51:11.556Z,1013.12
2019-05-06T01:52:11.582Z,1013.14
2019-05-06T01:53:11.599Z,1013.15
2019-05-06T01:54:11.623Z,1013.15
2019-05-06T01:55:11.648Z,1013.15
2019-05-06T01:56:11.671Z,1013.14
2019-05-06T01:57:13.673Z,1013.13
2019-05-06T01:58:11.715Z,1013.15
2019-05-06T01:59:13.794Z,1013.13
2019-05-06T02:00:13.936Z,1013.08
2019-05-06T02:01:11.784Z,1013.11
2019-05-06T02:02:11.807Z,1013.15
2019-05-06T02:03:11.831Z,1013.18
2019-05-06T02:04:13.761Z,1013.18
2019-05-06T02:05:13.757Z,1013.15
2019-05-06T02:06:13.887Z,1013.19
2019-05-06T02:07:11.918Z,1013.22
2019-05-06T02:08:13.493Z,1013.21
2019-05-06T02:09:13.732Z,1013.19
2019-05-06T02:10:14.028Z,1013.17
2019-05-06T02:11:12.012Z,1013.20
2019-05-06T02:12:13.782Z,1013.17
2019-05-06T02:13:14.118Z,1013.22
2019-05-06T02:14:13.932Z,1013.20
2019-05-06T02:15:12.105Z,1013.20
2019-05-06T02:16:14.354Z,1013.15
2019-05-06T02:17:14.236Z,1013.18
2019-05-06T02:18:13.545Z,1013.16
2019-05-06T02:19:12.198Z,1013.15
2019-05-06T02:20:13.823Z,1013.19
2019-05-06T02:21:13.845Z,1013.21
2019-05-06T02:22:13.620Z,1013.18
2019-05-06T02:23:14.464Z,1013.18
2019-05-06T02:24:13.496Z,1013.16
2019-05-06T02:25:13.842Z,1013.15
2019-05-06T02:26:14.151Z,1013.17
2019-05-06T02:27:13.963Z,1013.15
2019-05-06T02:28:14.299Z,1013.20
2019-05-06T02:29:12.425Z,1013.15
2019-05-06T02:30:15.085Z,1013.23
2019-05-06T02:31:14.848Z,1013.20
2019-05-06T02:32:25.223Z,1013.22
2019-05-06T02:33:15.168Z,1013.24
2019-05-06T02:34:15.284Z,1013.21
2019-05-06T02:35:14.945Z,1013.21
2019-05-06T02:36:14.908Z,1013.23
2019-05-06T02:37:14.718Z,1013.25
2019-05-06T02:38:12.626Z,1013.21
2019-05-06T02:39:14.100Z,1013.21
2019-05-06T02:40:12.780Z,1013.26
2019-05-06T02:41:13.423Z,1013.19
2019-05-06T02:42:13.223Z,1013.22
2019-05-06T02:43:13.564Z,1013.24
2019-05-06T02:44:13.749Z,1013.21
2019-05-06T02:45:12.861Z,1013.17
2019-05-06T02:46:13.049Z,1013.15
2019-05-06T02:47:13.705Z,1013.23
2019-05-06T02:48:13.792Z,1013.19
2019-05-06T02:49:13.302Z,1013.18
2019-05-06T02:50:13.385Z,1013.14
2019-05-06T02:51:13.493Z,1013.21
2019-05-06T02:52:14.030Z,1013.20
2019-05-06T02:53:13.438Z,1013.18
2019-05-06T02:54:13.621Z,1013.20
2019-05-06T02:55:13.129Z,1013.16
2019-05-06T02:56:13.495Z,1013.15
2019-05-06T02:57:13.362Z,1013.18
2019-05-06T02:58:14.853Z,1013.14
2019-05-06T02:59:13.108Z,1013.14
2019-05-06T03:00:13.271Z,1013.15
2019-05-06T03:01:13.680Z,1013.11
2019-05-06T03:02:14.226Z,1013.10
2019-05-06T03:03:14.011Z,1013.14
2019-05-06T03:04:13.358Z,1013.13
2019-05-06T03:05:13.252Z,1013.11
2019-05-06T03:06:13.404Z,1013.09
2019-05-06T03:07:14.499Z,1013.08
2019-05-06T03:08:13.748Z,1013.09
2019-05-06T03:09:13.760Z,1013.09
2019-05-06T03:10:13.360Z,1013.06
2019-05-06T03:11:13.877Z,1013.07
2019-05-06T03:12:13.870Z,1013.07
2019-05-06T03:13:14.396Z,1013.06
2019-05-06T03:14:14.055Z,1013.05
2019-05-06T03:15:16.592Z,1013.05
2019-05-06T03:16:14.325Z,1013.07
2019-05-06T03:17:14.278Z,1013.01
2019-05-06T03:18:14.718Z,1013.02
2019-05-06T03:19:13.696Z,1013.06
2019-05-06T03:20:13.585Z,1013.03
2019-05-06T03:21:14.028Z,1012.99
2019-05-06T03:22:13.634Z,1013.06
2019-05-06T03:23:14.353Z,1013.01
2019-05-06T03:24:14.640Z,1013.08
2019-05-06T03:25:13.696Z,1013.11
2019-05-06T03:26:13.899Z,1013.12
2019-05-06T03:27:14.441Z,1013.01
2019-05-06T03:28:13.765Z,1013.06
2019-05-06T03:29:13.793Z,1013.05
2019-05-06T03:30:16.303Z,1013.04
2019-05-06T03:31:16.458Z,1013.04
2019-05-06T03:32:16.821Z,1013.03
2019-05-06T03:33:37.050Z,1013.04
2019-05-06T03:34:35.765Z,1013.00
2019-05-06T03:35:27.377Z,1012.99
2019-05-06T03:36:23.923Z,1012.95
2019-05-06T03:37:16.724Z,1012.98
2019-05-06T03:38:13.995Z,1012.97
2019-05-06T03:39:14.032Z,1012.99
2019-05-06T03:40:14.058Z,1013.02
2019-05-06T03:41:14.186Z,1012.99
2019-05-06T03:42:16.745Z,1012.99
2019-05-06T03:43:16.072Z,1013.02
2019-05-06T03:44:16.748Z,1013.00
2019-05-06T03:45:14.147Z,1013.00
2019-05-06T03:46:14.465Z,1013.02
2019-05-06T03:47:14.194Z,1012.97
2019-05-06T03:48:14.217Z,1012.99
2019-05-06T03:49:14.249Z,1012.97
2019-05-06T03:50:14.264Z,1013.00
2019-05-06T03:51:14.297Z,1012.94
2019-05-06T03:52:14.321Z,1012.98
2019-05-06T03:53:14.348Z,1012.97
2019-05-06T03:54:14.355Z,1012.97
2019-05-06T03:55:14.378Z,1012.95
2019-05-06T03:56:19.515Z,1012.97
2019-05-06T03:57:14.421Z,1012.98
2019-05-06T03:58:14.444Z,1012.97
2019-05-06T03:59:14.469Z,1012.99
2019-05-06T04:00:16.024Z,1012.99
2019-05-06T04:01:14.514Z,1012.99
2019-05-06T04:02:14.533Z,1012.99
2019-05-06T04:03:14.558Z,1013.00
2019-05-06T04:04:14.585Z,1013.03
2019-05-06T04:05:14.601Z,1013.06
2019-05-06T04:06:14.626Z,1013.01
2019-05-06T04:07:14.649Z,1013.07
2019-05-06T04:08:14.670Z,1013.03
2019-05-06T04:09:14.691Z,1013.09
2019-05-06T04:10:14.721Z,1013.10
2019-05-06T04:11:14.737Z,1013.07
2019-05-06T04:12:14.786Z,1013.07
2019-05-06T04:13:14.784Z,1013.10
2019-05-06T04:14:14.806Z,1013.05
2019-05-06T04:15:14.830Z,1013.10
2019-05-06T04:16:14.854Z,1013.07
2019-05-06T04:17:14.881Z,1013.05
2019-05-06T04:18:14.894Z,1013.04
2019-05-06T04:19:14.918Z,1013.00
2019-05-06T04:20:14.951Z,1013.05
2019-05-06T04:21:16.720Z,1013.00
2019-05-06T04:22:14.987Z,1013.05
2019-05-06T04:23:15.010Z,1012.95
2019-05-06T04:24:15.035Z,1013.00
2019-05-06T04:25:15.066Z,1012.98
2019-05-06T04:26:15.082Z,1012.99
2019-05-06T04:27:15.100Z,1013.02
2019-05-06T04:28:15.121Z,1013.02
2019-05-06T04:29:15.142Z,1013.10
2019-05-06T04:30:15.165Z,1013.05
2019-05-06T04:31:15.196Z,1013.14
2019-05-06T04:32:15.210Z,1013.10
2019-05-06T04:33:17.502Z,1013.17
2019-05-06T04:34:19.120Z,1013.14
2019-05-06T04:35:15.278Z,1013.12
2019-05-06T04:36:15.306Z,1013.21
2019-05-06T04:37:15.322Z,1013.21
2019-05-06T04:38:15.352Z,1013.16
2019-05-06T04:39:15.368Z,1013.17
2019-05-06T04:40:15.397Z,1013.18
2019-05-06T04:41:15.418Z,1013.18
2019-05-06T04:42:15.438Z,1013.20
2019-05-06T04:43:15.461Z,1013.22
2019-05-06T04:44:15.493Z,1013.13
2019-05-06T04:45:17.248Z,1013.15
2019-05-06T04:46:16.983Z,1013.14
2019-05-06T04:47:15.549Z,1013.17
2019-05-06T04:48:15.571Z,1013.22
2019-05-06T04:49:15.596Z,1013.23
2019-05-06T04:50:15.619Z,1013.20
2019-05-06T04:51:15.640Z,1013.25
2019-05-06T04:52:15.664Z,1013.21
2019-05-06T04:53:15.687Z,1013.27
2019-05-06T04:54:15.710Z,1013.23
2019-05-06T04:55:15.731Z,1013.29
2019-05-06T04:56:15.766Z,1013.25
2019-05-06T04:57:15.774Z,1013.21
2019-05-06T04:58:15.803Z,1013.23
2019-05-06T04:59:15.829Z,1013.26
2019-05-06T05:00:15.846Z,1013.29
2019-05-06T05:01:16.015Z,1013.27
2019-05-06T05:02:15.890Z,1013.20
2019-05-06T05:03:15.914Z,1013.18
2019-05-06T05:04:28.212Z,1013.17
2019-05-06T05:05:15.962Z,1013.13
2019-05-06T05:06:15.988Z,1013.14
2019-05-06T05:07:16.004Z,1013.16
2019-05-06T05:08:16.025Z,1013.12
2019-05-06T05:09:17.453Z,1013.16
2019-05-06T05:10:16.070Z,1013.12
2019-05-06T05:11:16.091Z,1013.10
2019-05-06T05:12:16.122Z,1013.12
2019-05-06T05:13:16.139Z,1013.12
2019-05-06T05:14:16.163Z,1013.16
2019-05-06T05:15:16.185Z,1013.18
2019-05-06T05:16:16.209Z,1013.14
2019-05-06T05:17:16.229Z,1013.14
2019-05-06T05:18:16.251Z,1013.08
2019-05-06T05:19:16.273Z,1013.16
2019-05-06T05:20:16.299Z,1013.16
2019-05-06T05:21:16.323Z,1013.15
2019-05-06T05:22:16.344Z,1013.15
2019-05-06T05:23:16.367Z,1013.20
2019-05-06T05:24:16.390Z,1013.18
2019-05-06T05:25:16.416Z,1013.18
2019-05-06T05:26:16.434Z,1013.15
2019-05-06T05:27:16.457Z,1013.14
2019-05-06T05:28:16.480Z,1013.15
2019-05-06T05:29:16.504Z,1013.17
2019-05-06T05:30:16.527Z,1013.17
2019-05-06T05:31:16.550Z,1013.16
2019-05-06T05:32:16.579Z,1013.14
2019-05-06T05:33:16.595Z,1013.15
2019-05-06T05:34:16.617Z,1013.12
2019-05-06T05:35:16.644Z,1013.19
2019-05-06T05:36:16.669Z,1013.14
2019-05-06T05:37:16.690Z,1013.17
2019-05-06T05:38:16.713Z,1013.12
2019-05-06T05:39:16.733Z,1013.20
2019-05-06T05:40:16.757Z,1013.19
2019-05-06T05:41:16.776Z,1013.25
2019-05-06T05:42:16.802Z,1013.17
2019-05-06T05:43:16.823Z,1013.21
2019-05-06T05:44:16.854Z,1013.22
2019-05-06T05:45:16.871Z,1013.22
2019-05-06T05:46:16.892Z,1013.25
2019-05-06T05:47:16.915Z,1013.25
2019-05-06T05:48:16.939Z,1013.25
2019-05-06T05:49:20.169Z,1013.25
2019-05-06T05:50:16.986Z,1013.28
2019-05-06T05:51:17.008Z,1013.26
2019-05-06T05:52:17.039Z,1013.32
2019-05-06T05:53:17.061Z,1013.31
2019-05-06T05:54:17.082Z,1013.29
2019-05-06T05:55:17.107Z,1013.33
2019-05-06T05:56:17.123Z,1013.31
2019-05-06T05:57:17.148Z,1013.30
2019-05-06T05:58:17.172Z,1013.26
2019-05-06T05:59:17.195Z,1013.30
2019-05-06T06:00:17.223Z,1013.27
2019-05-06T06:01:17.241Z,1013.26
2019-05-06T06:02:17.265Z,1013.31
2019-05-06T06:03:17.288Z,1013.31
2019-05-06T06:04:17.310Z,1013.31
2019-05-06T06:05:17.334Z,1013.25
2019-05-06T06:06:17.354Z,1013.26
2019-05-06T06:07:17.378Z,1013.29
2019-05-06T06:08:17.405Z,1013.21
2019-05-06T06:09:17.424Z,1013.22
2019-05-06T06:10:17.448Z,1013.23
2019-05-06T06:11:17.474Z,1013.22
2019-05-06T06:12:17.497Z,1013.21
2019-05-06T06:13:17.522Z,1013.17
2019-05-06T06:14:17.542Z,1013.21
2019-05-06T06:15:17.568Z,1013.21
2019-05-06T06:16:17.590Z,1013.24
2019-05-06T06:17:17.611Z,1013.19
2019-05-06T06:18:17.637Z,1013.25
2019-05-06T06:19:17.669Z,1013.24
2019-05-06T06:20:17.683Z,1013.24
2019-05-06T06:21:24.890Z,1013.20
2019-05-06T06:22:17.728Z,1013.24
2019-05-06T06:23:17.751Z,1013.26
2019-05-06T06:24:17.775Z,1013.19
2019-05-06T06:25:17.800Z,1013.28
2019-05-06T06:26:17.827Z,1013.23
2019-05-06T06:27:17.845Z,1013.24
2019-05-06T06:28:17.874Z,1013.25
2019-05-06T06:29:18.104Z,1013.27
2019-05-06T06:30:17.915Z,1013.28
2019-05-06T06:31:17.951Z,1013.33
2019-05-06T06:32:17.979Z,1013.30
2019-05-06T06:33:17.986Z,1013.29
2019-05-06T06:34:18.011Z,1013.34
2019-05-06T06:35:19.212Z,1013.32
2019-05-06T06:36:18.058Z,1013.34
2019-05-06T06:37:18.081Z,1013.31
2019-05-06T06:38:18.105Z,1013.34
2019-05-06T06:39:18.129Z,1013.31
2019-05-06T06:40:18.153Z,1013.39
2019-05-06T06:41:18.181Z,1013.43
2019-05-06T06:42:18.197Z,1013.43
2019-05-06T06:43:18.222Z,1013.42
2019-05-06T06:44:18.251Z,1013.44
2019-05-06T06:45:18.282Z,1013.43
2019-05-06T06:46:18.300Z,1013.39
2019-05-06T06:47:18.318Z,1013.37
2019-05-06T06:48:18.350Z,1013.40
2019-05-06T06:49:18.367Z,1013.31
2019-05-06T06:50:18.389Z,1013.35
2019-05-06T06:51:18.411Z,1013.57
2019-05-06T06:52:18.437Z,1013.55
2019-05-06T06:53:18.462Z,1013.64
2019-05-06T06:54:18.484Z,1013.41
2019-05-06T06:55:18.678Z,1013.43
2019-05-06T06:56:18.532Z,1013.44
2019-05-06T06:57:18.556Z,1013.44
2019-05-06T06:58:18.581Z,1013.57
2019-05-06T06:59:18.603Z,1013.50
2019-05-06T07:00:18.627Z,1013.49
2019-05-06T07:01:18.651Z,1013.46
2019-05-06T07:02:18.694Z,1013.44
2019-05-06T07:03:18.699Z,1013.40
2019-05-06T07:04:18.726Z,1013.41
2019-05-06T07:05:25.429Z,1013.45
2019-05-06T07:06:18.775Z,1013.42
2019-05-06T07:07:18.798Z,1013.39
2019-05-06T07:08:32.072Z,1013.44
2019-05-06T07:09:18.845Z,1013.39
2019-05-06T07:10:18.871Z,1013.44
2019-05-06T07:11:18.907Z,1013.52
2019-05-06T07:12:18.957Z,1013.69
2019-05-06T07:13:18.945Z,1013.53
2019-05-06T07:14:18.971Z,1013.57
2019-05-06T07:15:18.993Z,1013.54
2019-05-06T07:16:20.739Z,1013.54
2019-05-06T07:17:19.045Z,1013.40
2019-05-06T07:18:19.083Z,1013.42
2019-05-06T07:19:19.094Z,1013.42
2019-05-06T07:20:19.122Z,1013.41
2019-05-06T07:21:19.147Z,1013.38
2019-05-06T07:22:19.172Z,1013.39
2019-05-06T07:23:19.196Z,1013.43
2019-05-06T07:24:19.224Z,1013.36
2019-05-06T07:25:19.249Z,1013.39
2019-05-06T07:26:19.275Z,1013.39
2019-05-06T07:27:19.307Z,1013.36
2019-05-06T07:28:19.325Z,1013.41
2019-05-06T07:29:25.835Z,1013.36
2019-05-06T07:30:19.377Z,1013.38
2019-05-06T07:31:23.709Z,1013.32
2019-05-06T07:32:19.431Z,1013.32
2019-05-06T07:33:19.457Z,1013.29
2019-05-06T07:34:19.488Z,1013.30
2019-05-06T07:35:19.517Z,1013.31
2019-05-06T07:36:20.227Z,1013.33
2019-05-06T07:37:21.955Z,1013.29
2019-05-06T07:38:19.586Z,1013.33
2019-05-06T07:39:19.618Z,1013.35
2019-05-06T07:40:21.912Z,1013.34
2019-05-06T07:41:19.671Z,1013.26
2019-05-06T07:42:19.698Z,1013.26
2019-05-06T07:43:21.904Z,1013.25
2019-05-06T07:44:22.249Z,1013.23
2019-05-06T07:45:21.890Z,1013.21
2019-05-06T07:46:19.800Z,1013.24
2019-05-06T07:47:19.826Z,1013.24
2019-05-06T07:48:19.851Z,1013.30
2019-05-06T07:49:19.885Z,1013.25
2019-05-06T07:50:22.268Z,1013.24
2019-05-06T07:51:19.938Z,1013.34
2019-05-06T07:52:19.964Z,1013.28
2019-05-06T07:53:19.985Z,1013.32
2019-05-06T07:54:22.047Z,1013.51
2019-05-06T07:55:20.037Z,1013.67
2019-05-06T07:56:22.284Z,1013.45
2019-05-06T07:57:22.014Z,1013.38
2019-05-06T07:58:20.118Z,1013.35
2019-05-06T07:59:22.300Z,1013.41
2019-05-06T08:00:20.174Z,1013.40
2019-05-06T08:01:23.614Z,1013.49
2019-05-06T08:02:22.624Z,1013.43
2019-05-06T08:03:22.239Z,1013.46
2019-05-06T08:04:20.282Z,1013.38
2019-05-06T08:05:22.339Z,1013.42
2019-05-06T08:06:22.559Z,1013.40
2019-05-06T08:07:22.326Z,1013.40
2019-05-06T08:08:22.853Z,1013.42
2019-05-06T08:09:22.111Z,1013.37
2019-05-06T08:10:22.024Z,1013.44
2019-05-06T08:11:22.610Z,1013.38
2019-05-06T08:12:22.302Z,1013.36
2019-05-06T08:13:22.561Z,1013.36
2019-05-06T08:14:22.465Z,1013.38
2019-05-06T08:15:22.547Z,1013.46
2019-05-06T08:16:22.551Z,1013.31
2019-05-06T08:17:22.251Z,1013.38
2019-05-06T08:18:21.909Z,1013.39
2019-05-06T08:19:22.761Z,1013.37
2019-05-06T08:20:22.217Z,1013.37
2019-05-06T08:21:22.357Z,1013.65
2019-05-06T08:22:22.695Z,1013.40
2019-05-06T08:23:22.073Z,1013.45
2019-05-06T08:24:22.766Z,1013.42
2019-05-06T08:25:22.927Z,1013.39
2019-05-06T08:26:22.432Z,1013.36
2019-05-06T08:27:22.734Z,1013.22
2019-05-06T08:28:22.561Z,1013.37
2019-05-06T08:29:22.497Z,1013.21
2019-05-06T08:30:22.965Z,1013.28
2019-05-06T08:31:22.344Z,1013.23
2019-05-06T08:32:22.774Z,1013.22
2019-05-06T08:33:21.991Z,1013.19
2019-05-06T08:34:22.618Z,1013.13
2019-05-06T08:35:22.767Z,1013.11
2019-05-06T08:36:22.543Z,1013.09
2019-05-06T08:37:22.768Z,1013.05
2019-05-06T08:38:22.595Z,1013.01
2019-05-06T08:39:22.033Z,1013.01
2019-05-06T08:40:22.687Z,1012.97
2019-05-06T08:41:22.743Z,1012.96
2019-05-06T08:42:22.442Z,1012.96
2019-05-06T08:43:21.970Z,1012.93
2019-05-06T08:44:22.521Z,1013.00
2019-05-06T08:45:22.041Z,1013.55
2019-05-06T08:46:23.459Z,1013.55
2019-05-06T08:47:22.358Z,1013.55
2019-05-06T08:48:22.046Z,1013.59
2019-05-06T08:49:22.524Z,1013.57
2019-05-06T08:50:21.859Z,1013.65
2019-05-06T08:51:22.393Z,1013.59
2019-05-06T08:52:21.774Z,1013.57
2019-05-06T08:53:24.175Z,1013.62
2019-05-06T08:54:22.761Z,1013.57
2019-05-06T08:55:22.088Z,1013.60
2019-05-06T08:56:22.087Z,1013.58
2019-05-06T08:57:22.793Z,1013.57
2019-05-06T08:58:22.178Z,1013.60
2019-05-06T08:59:23.849Z,1013.64
2019-05-06T09:00:22.760Z,1013.62
2019-05-06T09:01:22.430Z,1013.69
2019-05-06T09:02:22.877Z,1013.69
2019-05-06T09:03:22.394Z,1013.71
2019-05-06T09:04:22.795Z,1013.68
2019-05-06T09:05:22.321Z,1013.71
2019-05-06T09:06:29.217Z,1013.74
2019-05-06T09:07:23.905Z,1013.75
2019-05-06T09:08:22.724Z,1013.72
2019-05-06T09:09:22.543Z,1013.78
2019-05-06T09:10:22.732Z,1013.73
2019-05-06T09:13:53.103Z,1013.87
2019-05-06T09:14:53.382Z,1013.93
2019-05-06T09:15:53.166Z,1013.87
2019-05-06T09:16:54.087Z,1013.91
2019-05-06T09:17:53.238Z,1013.84
2019-05-06T09:18:53.508Z,1013.95
2019-05-06T09:19:53.557Z,1013.90
2019-05-06T09:20:53.707Z,1013.92
2019-05-06T09:21:55.984Z,1013.92
2019-05-06T09:23:45.970Z,1012.74
2019-05-06T09:24:46.004Z,1013.34
2019-05-06T09:25:46.035Z,1012.66
2019-05-06T09:26:46.073Z,1013.26
2019-05-06T09:27:46.100Z,1012.63
2019-05-06T09:28:46.139Z,1012.64
2019-05-06T09:29:46.165Z,1012.64
2019-05-06T09:30:46.200Z,1013.87
2019-05-06T09:31:46.229Z,1013.97
2019-05-06T09:32:46.259Z,1013.98
2019-05-06T09:33:46.294Z,1014.05
2019-05-06T09:34:46.320Z,1014.04
2019-05-06T09:35:46.359Z,1014.06
2019-05-06T09:36:51.849Z,1014.12
2019-05-06T09:37:46.416Z,1014.02
2019-05-06T09:38:46.444Z,1014.22
2019-05-06T09:39:46.484Z,1014.31
2019-05-06T09:40:46.510Z,1014.30
2019-05-06T09:41:48.808Z,1014.33
2019-05-06T09:42:46.574Z,1014.36
2019-05-06T09:43:46.603Z,1014.50
2019-05-06T09:44:50.232Z,1014.61
2019-05-06T09:45:46.674Z,1014.56
2019-05-06T09:46:46.700Z,1014.64
2019-05-06T09:47:46.731Z,1014.74
2019-05-06T09:48:46.771Z,1014.78
2019-05-06T09:49:46.801Z,1014.67
2019-05-06T09:50:46.906Z,1014.88
2019-05-06T09:51:46.864Z,1014.74
2019-05-06T09:52:49.519Z,1015.30
2019-05-06T09:53:46.928Z,1015.28
2019-05-06T09:54:46.959Z,1015.32
2019-05-06T09:55:46.990Z,1015.56
2019-05-06T09:56:47.030Z,1015.73
2019-05-06T09:57:47.063Z,1016.04
2019-05-06T09:58:47.089Z,1016.02
2019-05-06T09:59:47.123Z,1015.61
2019-05-06T10:00:47.155Z,1016.05
2019-05-06T10:01:47.190Z,1015.85
2019-05-06T10:02:49.508Z,1014.74
2019-05-06T10:03:47.256Z,1015.01
2019-05-06T10:04:47.299Z,1015.24
2019-05-06T10:05:47.378Z,1015.90
2019-05-06T10:06:56.175Z,1015.83
2019-05-06T10:07:47.395Z,1015.71
2019-05-06T10:09:35.000Z,1015.67
2019-05-06T10:11:32.956Z,1015.39
2019-05-06T10:12:32.988Z,1014.95
2019-05-06T10:13:32.906Z,1014.25
2019-05-06T10:18:41.947Z,1015.67
2019-05-06T10:19:42.926Z,1015.16
2019-05-06T10:20:42.840Z,1013.62
2019-05-06T10:21:42.730Z,1014.27
2019-05-06T10:22:43.083Z,1013.42
2019-05-06T10:23:42.426Z,1013.25
2019-05-06T10:24:43.078Z,1012.87
2019-05-06T10:25:43.619Z,1012.71
2019-05-06T10:26:43.168Z,1012.68
2019-05-06T10:27:42.363Z,1012.68
2019-05-06T10:28:42.283Z,1012.67
2019-05-06T10:29:43.229Z,1012.67
2019-05-06T10:30:42.357Z,1012.62
2019-05-06T10:31:43.164Z,1012.67
2019-05-06T10:32:42.735Z,1012.89
2019-05-06T10:33:42.742Z,1012.74
2019-05-06T10:34:43.451Z,1012.90
2019-05-06T10:35:42.932Z,1012.66
2019-05-06T10:36:42.751Z,1012.86
2019-05-06T10:37:42.565Z,1012.81
2019-05-06T10:38:42.593Z,1012.69
2019-05-06T10:39:42.624Z,1012.64
2019-05-06T10:40:57.229Z,1012.58
2019-05-06T10:41:42.684Z,1012.74
2019-05-06T10:42:43.097Z,1012.95
2019-05-06T10:43:43.157Z,1012.51
2019-05-06T10:44:43.043Z,1013.19
2019-05-06T10:45:42.806Z,1012.74
2019-05-06T10:46:43.155Z,1012.53
2019-05-06T10:47:42.870Z,1012.36
2019-05-06T10:48:42.904Z,1012.30
2019-05-06T10:49:42.929Z,1012.24
2019-05-06T10:50:42.959Z,1012.18
2019-05-06T10:51:42.998Z,1012.16
2019-05-06T10:52:43.026Z,1012.18
2019-05-06T10:53:43.050Z,1012.31
2019-05-06T10:54:43.084Z,1012.21
2019-05-06T10:55:43.109Z,1012.07
2019-05-06T10:56:52.745Z,1012.09
2019-05-06T10:57:43.231Z,1012.15
2019-05-06T10:58:44.024Z,1013.30
2019-05-06T10:59:43.230Z,1012.13
2019-05-06T11:00:43.264Z,1012.11
2019-05-06T11:01:43.301Z,1012.20
2019-05-06T11:02:43.352Z,1012.58
2019-05-06T11:03:43.367Z,1012.83
2019-05-06T11:04:43.380Z,1012.33
2019-05-06T11:05:43.501Z,1012.29
2019-05-06T11:06:43.437Z,1012.30
2019-05-06T11:07:43.484Z,1012.25
2019-05-06T11:08:43.503Z,1012.26
2019-05-06T11:09:43.526Z,1012.93
2019-05-06T11:10:45.498Z,1013.36
2019-05-06T11:11:43.589Z,1012.15
2019-05-06T11:12:43.612Z,1012.11
2019-05-06T11:13:43.644Z,1012.06
2019-05-06T11:14:43.675Z,1012.00
2019-05-06T11:15:43.710Z,1011.99
2019-05-06T11:16:43.732Z,1011.94
2019-05-06T11:17:43.823Z,1011.98
2019-05-06T11:18:43.794Z,1011.96
2019-05-06T11:19:43.814Z,1011.91
2019-05-06T11:20:44.235Z,1011.98
2019-05-06T11:21:45.007Z,1011.92
2019-05-06T11:22:43.951Z,1011.94
2019-05-06T11:23:43.932Z,1011.92
2019-05-06T11:24:43.962Z,1011.95
2019-05-06T11:25:43.999Z,1011.92
2019-05-06T11:26:44.017Z,1011.93
2019-05-06T11:27:45.085Z,1011.94
2019-05-06T11:28:44.075Z,1011.92
2019-05-06T11:29:44.105Z,1011.91
2019-05-06T11:30:44.130Z,1011.96
2019-05-06T11:31:44.157Z,1011.88
2019-05-06T11:32:44.632Z,1012.01
2019-05-06T11:33:44.223Z,1011.94
2019-05-06T11:34:44.241Z,1012.09
2019-05-06T11:35:44.271Z,1012.66
2019-05-06T11:36:44.304Z,1012.79
2019-05-06T11:37:50.179Z,1012.28
2019-05-06T11:38:44.355Z,1012.18
2019-05-06T11:39:44.387Z,1012.21
2019-05-06T11:40:44.412Z,1011.96
2019-05-06T11:42:01.726Z,1011.95
2019-05-06T11:42:44.476Z,1011.94
2019-05-06T11:43:44.494Z,1011.91
2019-05-06T11:44:44.525Z,1011.90
2019-05-06T11:45:44.550Z,1011.82
2019-05-06T11:46:44.588Z,1011.92
2019-05-06T11:47:44.610Z,1011.89
2019-05-06T11:48:44.638Z,1012.19
2019-05-06T11:49:44.663Z,1011.96
2019-05-06T11:50:44.697Z,1011.99
2019-05-06T11:51:44.720Z,1012.14
2019-05-06T11:52:44.749Z,1011.98
2019-05-06T11:53:44.778Z,1011.99
2019-05-06T11:54:44.804Z,1011.95
2019-05-06T11:55:44.832Z,1011.94
2019-05-06T11:56:51.234Z,1011.96
2019-05-06T11:57:44.924Z,1011.93
2019-05-06T11:58:44.917Z,1011.86
2019-05-06T11:59:44.948Z,1011.84
2019-05-06T12:00:44.977Z,1011.86
2019-05-06T12:01:45.005Z,1011.80
2019-05-06T12:02:48.404Z,1011.85
2019-05-06T12:03:45.072Z,1011.77
2019-05-06T12:04:45.091Z,1011.73
2019-05-06T12:05:45.118Z,1011.78
2019-05-06T12:06:45.143Z,1011.78
2019-05-06T12:08:00.981Z,1011.77
2019-05-06T12:08:45.199Z,1011.81
2019-05-06T12:09:45.233Z,1011.86
2019-05-06T12:10:45.253Z,1011.83
2019-05-06T12:11:45.281Z,1011.95
2019-05-06T12:12:45.308Z,1011.91
2019-05-06T12:13:45.339Z,1012.03
2019-05-06T12:14:45.364Z,1012.84